Time;durP1;ratioP1;P1;durP2;ratioP2;P2;SDS_P1;SDS_P2;PMS_P1;PMS_P2;Temp;Humidity;BMP_temperature;BMP_pressure;BME280_temperature;BME280_humidity;BME280_pressure;Samples;Min_cycle;Max_cycle;Signal;HPM_P1;HPM_P2
2021/10/18 00:00:27;;;;;;;4.80;4.00;;;;;;;;;;5071199;28;20043;-59
2021/10/18 00:02:52;;;;;;;7.07;3.92;;;;;;;;;;5071896;28;20478;-59
2021/10/18 00:05:17;;;;;;;6.78;3.85;;;;;;;;;;5068718;28;20469;-57
2021/10/18 00:07:42;;;;;;;5.97;4.50;;;;;;;;;;5070838;28;20028;-59
2021/10/18 00:10:08;;;;;;;8.43;4.13;;;;;;;;;;5069888;28;20025;-57
2021/10/18 00:12:34;;;;;;;5.72;4.35;;;;;;;;;;5075384;28;20047;-59
2021/10/18 00:14:59;;;;;;;4.45;3.50;;;;;;;;;;5075101;28;20380;-57
2021/10/18 00:17:24;;;;;;;5.15;4.00;;;;;;;;;;5074739;28;20476;-58
2021/10/18 00:19:50;;;;;;;6.50;4.05;;;;;;;;;;5075322;28;20061;-59
2021/10/18 00:22:15;;;;;;;5.47;4.80;;;;;;;;;;5074988;28;20013;-59
2021/10/18 00:24:40;;;;;;;6.40;4.40;;;;;;;;;;5074901;28;20020;-58
2021/10/18 00:27:06;;;;;;;4.72;3.50;;;;;;;;;;5068777;28;20118;-58
2021/10/18 00:29:31;;;;;;;6.40;3.80;;;;;;;;;;5056753;28;20123;-58
2021/10/18 00:31:56;;;;;;;6.18;3.70;;;;;;;;;;5074813;28;20033;-59
2021/10/18 00:34:21;;;;;;;6.38;4.05;;;;;;;;;;5074853;28;20035;-58
2021/10/18 00:36:46;;;;;;;4.70;3.75;;;;;;;;;;5082658;28;20031;-58
2021/10/18 00:39:11;;;;;;;4.38;3.97;;;;;;;;;;5073140;28;20054;-57
2021/10/18 00:41:37;;;;;;;5.47;4.22;;;;;;;;;;5073644;28;20027;-58
2021/10/18 00:44:02;;;;;;;5.32;4.18;;;;;;;;;;5074438;28;20033;-58
2021/10/18 00:46:27;;;;;;;4.53;3.28;;;;;;;;;;5074495;28;20461;-58
2021/10/18 00:48:53;;;;;;;5.85;3.65;;;;;;;;;;5072639;28;20025;-57
2021/10/18 00:51:21;;;;;;;5.30;3.53;;;;;;;;;;5074657;28;20519;-58
2021/10/18 00:53:47;;;;;;;6.85;3.55;;;;;;;;;;5073623;28;20017;-58
2021/10/18 00:56:16;;;;;;;3.92;3.20;;;;;;;;;;5070691;28;20021;-57
2021/10/18 00:58:42;;;;;;;5.10;3.45;;;;;;;;;;5073499;28;20017;-58
2021/10/18 01:01:07;;;;;;;5.10;3.28;;;;;;;;;;5074326;28;20146;-58
2021/10/18 01:03:33;;;;;;;4.60;3.60;;;;;;;;;;5074140;28;20396;-58
2021/10/18 01:05:58;;;;;;;6.18;3.50;;;;;;;;;;5074077;28;20017;-59
2021/10/18 01:08:23;;;;;;;4.95;3.72;;;;;;;;;;5073586;28;20016;-59
2021/10/18 01:10:48;;;;;;;5.43;3.60;;;;;;;;;;5074007;28;20119;-59
2021/10/18 01:13:13;;;;;;;4.72;3.50;;;;;;;;;;5074013;28;20376;-59
2021/10/18 01:15:39;;;;;;;5.05;3.55;;;;;;;;;;5074667;28;20024;-59
2021/10/18 01:18:04;;;;;;;5.15;3.20;;;;;;;;;;5073793;28;20551;-59
2021/10/18 01:20:33;;;;;;;5.63;3.60;;;;;;;;;;5072498;28;20033;-59
2021/10/18 01:22:59;;;;;;;4.55;3.38;;;;;;;;;;5072470;28;20437;-58
2021/10/18 01:25:24;;;;;;;4.70;3.28;;;;;;;;;;5071790;28;20468;-59
2021/10/18 01:27:49;;;;;;;5.63;2.95;;;;;;;;;;5072645;28;20522;-59
2021/10/18 01:30:15;;;;;;;4.97;3.42;;;;;;;;;;5073650;28;20420;-59
2021/10/18 01:32:40;;;;;;;5.15;3.67;;;;;;;;;;5073781;28;20477;-56
2021/10/18 01:35:07;;;;;;;4.55;3.15;;;;;;;;;;5073760;28;20025;-59
2021/10/18 01:37:32;;;;;;;4.50;3.17;;;;;;;;;;5073657;28;20031;-58
2021/10/18 01:39:57;;;;;;;4.55;2.90;;;;;;;;;;5073210;28;20025;-59
2021/10/18 01:42:22;;;;;;;5.15;3.35;;;;;;;;;;5071906;28;20044;-59
2021/10/18 01:44:47;;;;;;;4.40;3.10;;;;;;;;;;5073415;28;20036;-60
2021/10/18 01:47:12;;;;;;;3.10;2.70;;;;;;;;;;5073478;28;20028;-58
2021/10/18 01:49:38;;;;;;;4.43;3.00;;;;;;;;;;5073710;28;20222;-59
2021/10/18 01:52:03;;;;;;;5.40;3.42;;;;;;;;;;5072078;28;20036;-59
2021/10/18 01:54:28;;;;;;;4.13;3.00;;;;;;;;;;5073298;28;20013;-58
2021/10/18 01:56:54;;;;;;;3.95;3.25;;;;;;;;;;5070384;28;20415;-58
2021/10/18 01:59:19;;;;;;;5.82;3.13;;;;;;;;;;5073118;28;20024;-58
2021/10/18 02:01:44;;;;;;;5.38;3.03;;;;;;;;;;5070914;28;20098;-58
2021/10/18 02:04:09;;;;;;;4.43;2.88;;;;;;;;;;5073085;28;20024;-58
2021/10/18 02:06:34;;;;;;;5.13;2.92;;;;;;;;;;5068870;28;20078;-59
2021/10/18 02:09:00;;;;;;;4.95;3.47;;;;;;;;;;5071041;28;20067;-58
2021/10/18 02:11:25;;;;;;;3.40;2.90;;;;;;;;;;5060888;28;20029;-58
2021/10/18 02:13:50;;;;;;;4.68;3.30;;;;;;;;;;5072522;28;20534;-59
2021/10/18 02:16:15;;;;;;;4.18;2.60;;;;;;;;;;5072468;28;20024;-59
2021/10/18 02:18:41;;;;;;;3.38;3.08;;;;;;;;;;5071861;28;20009;-59
2021/10/18 02:21:06;;;;;;;3.53;2.70;;;;;;;;;;5073335;28;20036;-59
2021/10/18 02:23:32;;;;;;;3.95;2.80;;;;;;;;;;5071651;28;20477;-59
2021/10/18 02:25:57;;;;;;;2.75;2.50;;;;;;;;;;5070526;28;20784;-59
2021/10/18 02:28:22;;;;;;;4.35;2.90;;;;;;;;;;5071916;28;20085;-58
2021/10/18 02:30:48;;;;;;;3.88;2.65;;;;;;;;;;5072507;28;20029;-59
2021/10/18 02:33:13;;;;;;;4.22;2.78;;;;;;;;;;5071971;28;20036;-60
2021/10/18 02:35:38;;;;;;;3.92;2.75;;;;;;;;;;5071540;28;20111;-60
2021/10/18 02:38:04;;;;;;;4.32;2.83;;;;;;;;;;5071087;28;20048;-60
2021/10/18 02:40:29;;;;;;;2.97;2.63;;;;;;;;;;5072447;28;20037;-56
2021/10/18 02:42:54;;;;;;;3.90;2.40;;;;;;;;;;5073614;28;20025;-58
2021/10/18 02:45:19;;;;;;;4.93;2.97;;;;;;;;;;5076807;28;20137;-56
2021/10/18 02:47:44;;;;;;;3.75;2.63;;;;;;;;;;5072343;28;20491;-58
2021/10/18 02:50:10;;;;;;;2.88;2.50;;;;;;;;;;5072491;28;20111;-58
2021/10/18 02:52:35;;;;;;;6.50;2.75;;;;;;;;;;5071897;28;20032;-59
2021/10/18 02:55:00;;;;;;;4.00;2.78;;;;;;;;;;5071517;28;20115;-58
2021/10/18 02:57:25;;;;;;;3.92;2.85;;;;;;;;;;5054388;28;20021;-58
2021/10/18 02:59:50;;;;;;;4.60;2.78;;;;;;;;;;5052072;28;20052;-57
2021/10/18 03:02:17;;;;;;;3.40;2.58;;;;;;;;;;5069062;28;20024;-58
2021/10/18 03:04:43;;;;;;;4.57;2.88;;;;;;;;;;5071375;28;20138;-58
2021/10/18 03:07:08;;;;;;;4.72;2.90;;;;;;;;;;5072171;28;20507;-58
2021/10/18 03:09:33;;;;;;;3.80;2.70;;;;;;;;;;5071461;28;20550;-58
2021/10/18 03:11:59;;;;;;;5.38;3.13;;;;;;;;;;5072262;28;20037;-59
2021/10/18 03:14:24;;;;;;;4.07;3.03;;;;;;;;;;5071158;28;20059;-59
2021/10/18 03:16:49;;;;;;;4.80;2.90;;;;;;;;;;5071733;28;20158;-56
2021/10/18 03:19:14;;;;;;;4.68;3.00;;;;;;;;;;5072142;28;20468;-61
2021/10/18 03:21:40;;;;;;;6.45;3.42;;;;;;;;;;5070166;28;20469;-59
2021/10/18 03:24:05;;;;;;;5.10;3.10;;;;;;;;;;5069957;28;20480;-59
2021/10/18 03:26:30;;;;;;;4.55;3.20;;;;;;;;;;5068291;28;20117;-59
2021/10/18 03:28:55;;;;;;;3.72;3.38;;;;;;;;;;5071572;28;20583;-59
2021/10/18 03:31:21;;;;;;;3.10;2.80;;;;;;;;;;5071819;28;20043;-59
2021/10/18 03:33:46;;;;;;;5.68;3.15;;;;;;;;;;5071254;28;20028;-57
2021/10/18 03:36:11;;;;;;;4.97;3.40;;;;;;;;;;5071551;28;20020;-57
2021/10/18 03:38:36;;;;;;;4.10;3.25;;;;;;;;;;5070772;28;20024;-58
2021/10/18 03:41:02;;;;;;;5.65;3.35;;;;;;;;;;5072505;28;20056;-58
2021/10/18 03:43:27;;;;;;;5.32;3.10;;;;;;;;;;5071586;28;20035;-58
2021/10/18 03:45:52;;;;;;;3.08;2.78;;;;;;;;;;5071449;28;20361;-65
2021/10/18 03:48:18;;;;;;;6.03;3.47;;;;;;;;;;5071252;28;20024;-59
2021/10/18 03:50:43;;;;;;;4.90;3.05;;;;;;;;;;5071443;28;20075;-60
2021/10/18 03:53:08;;;;;;;3.92;3.50;;;;;;;;;;5071178;28;20025;-58
2021/10/18 03:55:34;;;;;;;4.80;3.03;;;;;;;;;;5069645;28;20384;-58
2021/10/18 03:57:59;;;;;;;8.52;3.85;;;;;;;;;;5070380;28;20074;-60
2021/10/18 04:00:25;;;;;;;4.00;3.17;;;;;;;;;;5071437;28;20435;-59
2021/10/18 04:02:50;;;;;;;4.47;3.25;;;;;;;;;;5071264;28;20024;-59
2021/10/18 04:05:15;;;;;;;4.88;3.63;;;;;;;;;;5071428;28;20017;-60
2021/10/18 04:07:45;;;;;;;3.45;2.85;;;;;;;;;;5070664;28;20416;-60
2021/10/18 04:10:10;;;;;;;7.35;3.58;;;;;;;;;;5069735;28;20025;-60
2021/10/18 04:12:35;;;;;;;4.97;3.30;;;;;;;;;;5058656;28;20025;-60
2021/10/18 04:15:00;;;;;;;6.03;3.38;;;;;;;;;;5070917;28;20029;-59
2021/10/18 04:17:26;;;;;;;4.22;3.60;;;;;;;;;;5071119;28;20031;-58
2021/10/18 04:19:51;;;;;;;6.47;3.60;;;;;;;;;;5071277;28;20060;-59
2021/10/18 04:22:16;;;;;;;6.22;3.50;;;;;;;;;;5070994;28;20033;-58
2021/10/18 04:24:42;;;;;;;3.83;3.30;;;;;;;;;;5070658;28;20032;-59
2021/10/18 04:27:07;;;;;;;4.88;3.53;;;;;;;;;;5069860;28;20047;-59
2021/10/18 04:29:32;;;;;;;5.05;3.33;;;;;;;;;;5070236;28;20110;-57
2021/10/18 04:31:58;;;;;;;5.75;3.47;;;;;;;;;;5070903;28;20032;-60
2021/10/18 04:34:24;;;;;;;4.75;3.00;;;;;;;;;;5071805;28;20078;-59
2021/10/18 04:36:49;;;;;;;3.33;3.03;;;;;;;;;;5070323;28;20070;-60
2021/10/18 04:39:14;;;;;;;3.30;3.00;;;;;;;;;;5070069;28;20027;-58
2021/10/18 04:41:40;;;;;;;3.88;2.97;;;;;;;;;;5071153;28;20103;-58
2021/10/18 04:44:05;;;;;;;4.78;3.08;;;;;;;;;;5070711;28;20059;-58
2021/10/18 04:46:30;;;;;;;4.93;2.70;;;;;;;;;;5071233;28;20047;-58
2021/10/18 04:48:55;;;;;;;3.80;3.10;;;;;;;;;;5070251;28;20050;-58
2021/10/18 04:51:20;;;;;;;4.72;2.55;;;;;;;;;;5070717;28;20098;-58
2021/10/18 04:53:45;;;;;;;4.50;2.80;;;;;;;;;;5069970;28;20025;-59
2021/10/18 04:56:11;;;;;;;3.80;3.00;;;;;;;;;;5069752;28;20028;-59
2021/10/18 04:58:36;;;;;;;4.85;3.28;;;;;;;;;;5073016;28;20500;-59
2021/10/18 05:01:01;;;;;;;3.70;3.15;;;;;;;;;;5073838;28;20019;-58
2021/10/18 05:03:26;;;;;;;4.05;2.92;;;;;;;;;;5072868;28;20027;-59
2021/10/18 05:05:52;;;;;;;5.30;3.15;;;;;;;;;;5073659;28;20040;-58
2021/10/18 05:08:17;;;;;;;5.53;2.92;;;;;;;;;;5073919;28;20020;-59
2021/10/18 05:10:43;;;;;;;6.82;3.00;;;;;;;;;;5073381;28;20480;-59
2021/10/18 05:13:09;;;;;;;4.57;3.55;;;;;;;;;;5073694;28;20161;-59
2021/10/18 05:15:34;;;;;;;6.13;3.40;;;;;;;;;;5073631;28;20107;-59
2021/10/18 05:18:02;;;;;;;7.63;2.90;;;;;;;;;;5074082;28;20052;-59
2021/10/18 05:20:28;;;;;;;4.50;3.33;;;;;;;;;;5074108;28;20028;-61
2021/10/18 05:22:53;;;;;;;3.97;3.25;;;;;;;;;;5072237;28;20111;-60
2021/10/18 05:25:19;;;;;;;4.70;3.28;;;;;;;;;;5071502;28;20056;-59
2021/10/18 05:27:44;;;;;;;7.30;3.88;;;;;;;;;;5069923;28;20123;-59
2021/10/18 05:30:10;;;;;;;4.55;3.35;;;;;;;;;;5072893;28;20115;-59
2021/10/18 05:32:36;;;;;;;4.00;3.38;;;;;;;;;;5073744;28;20501;-59
2021/10/18 05:35:01;;;;;;;4.70;3.30;;;;;;;;;;5073556;28;20025;-58
2021/10/18 05:37:26;;;;;;;4.93;3.20;;;;;;;;;;5073490;28;20392;-59
2021/10/18 05:39:52;;;;;;;6.53;3.78;;;;;;;;;;5072205;28;20027;-58
2021/10/18 05:42:18;;;;;;;4.85;3.10;;;;;;;;;;5073444;28;20056;-60
2021/10/18 05:44:43;;;;;;;5.32;3.20;;;;;;;;;;5073274;28;20040;-58
2021/10/18 05:47:08;;;;;;;6.35;4.18;;;;;;;;;;5069043;28;20035;-58
2021/10/18 05:49:33;;;;;;;5.35;3.28;;;;;;;;;;5073359;28;20024;-57
2021/10/18 05:52:01;;;;;;;6.95;3.20;;;;;;;;;;5072186;28;20020;-56
2021/10/18 05:54:26;;;;;;;3.80;2.92;;;;;;;;;;5072174;28;20031;-56
2021/10/18 05:56:51;;;;;;;3.92;3.10;;;;;;;;;;5071005;28;20021;-57
2021/10/18 05:59:16;;;;;;;7.43;3.70;;;;;;;;;;5080348;28;20108;-59
2021/10/18 06:01:42;;;;;;;3.88;2.78;;;;;;;;;;5070388;28;20025;-59
2021/10/18 06:04:07;;;;;;;6.53;3.15;;;;;;;;;;5071882;28;20025;-59
2021/10/18 06:06:34;;;;;;;4.63;2.70;;;;;;;;;;5072601;28;20028;-58
2021/10/18 06:08:59;;;;;;;5.07;3.20;;;;;;;;;;5068529;28;20025;-58
2021/10/18 06:11:25;;;;;;;6.80;2.72;;;;;;;;;;5071491;28;20020;-57
2021/10/18 06:13:50;;;;;;;3.92;2.63;;;;;;;;;;5072513;28;20016;-54
2021/10/18 06:16:15;;;;;;;3.90;2.60;;;;;;;;;;5072718;28;20028;-57
2021/10/18 06:18:40;;;;;;;4.10;2.60;;;;;;;;;;5072789;28;20060;-60
2021/10/18 06:21:05;;;;;;;3.95;2.60;;;;;;;;;;5070916;28;20016;-58
2021/10/18 06:23:31;;;;;;;4.13;2.83;;;;;;;;;;5070864;28;20032;-60
2021/10/18 06:25:56;;;;;;;4.50;2.65;;;;;;;;;;5065788;28;20048;-59
2021/10/18 06:28:21;;;;;;;5.40;3.13;;;;;;;;;;5071265;28;20032;-56
2021/10/18 06:30:50;;;;;;;3.35;2.95;;;;;;;;;;5072104;28;20552;-58
2021/10/18 06:33:15;;;;;;;4.93;2.80;;;;;;;;;;5071625;28;20024;-58
2021/10/18 06:35:40;;;;;;;3.50;2.63;;;;;;;;;;5072110;28;20396;-58
2021/10/18 06:38:10;;;;;;;7.13;2.78;;;;;;;;;;5070478;28;20021;-57
2021/10/18 06:40:35;;;;;;;5.22;2.50;;;;;;;;;;5070288;28;20040;-58
2021/10/18 06:43:00;;;;;;;5.30;2.60;;;;;;;;;;5072402;28;21387;-58
2021/10/18 06:45:26;;;;;;;6.88;2.55;;;;;;;;;;5070407;28;20415;-58
2021/10/18 06:47:51;;;;;;;6.85;3.75;;;;;;;;;;5072060;28;20127;-57
2021/10/18 06:50:17;;;;;;;9.10;3.08;;;;;;;;;;5071243;28;20522;-59
2021/10/18 06:52:42;;;;;;;4.85;2.50;;;;;;;;;;5070930;28;20074;-56
2021/10/18 06:55:10;;;;;;;5.28;2.63;;;;;;;;;;5071730;28;20025;-58
2021/10/18 06:57:35;;;;;;;5.10;2.15;;;;;;;;;;5066695;28;20115;-58
2021/10/18 07:00:01;;;;;;;7.28;2.53;;;;;;;;;;5069519;28;20139;-58
2021/10/18 07:02:26;;;;;;;8.15;3.45;;;;;;;;;;5071646;28;20056;-57
2021/10/18 07:04:52;;;;;;;3.70;2.47;;;;;;;;;;5071646;28;20024;-58
2021/10/18 07:07:17;;;;;;;4.70;2.22;;;;;;;;;;5071927;28;20034;-58
2021/10/18 07:09:43;;;;;;;3.83;2.30;;;;;;;;;;5071072;28;20397;-54
2021/10/18 07:12:08;;;;;;;4.97;2.50;;;;;;;;;;5071722;28;20488;-57
2021/10/18 07:14:33;;;;;;;5.15;2.67;;;;;;;;;;5071808;28;20124;-57
2021/10/18 07:16:59;;;;;;;6.80;2.10;;;;;;;;;;5070405;28;20029;-58
2021/10/18 07:19:24;;;;;;;3.38;1.75;;;;;;;;;;5071296;28;20032;-57
2021/10/18 07:21:49;;;;;;;5.20;1.95;;;;;;;;;;5069723;28;20103;-58
2021/10/18 07:24:18;;;;;;;3.10;1.73;;;;;;;;;;5065880;28;20032;-57
2021/10/18 07:26:43;;;;;;;5.40;2.00;;;;;;;;;;5066025;28;20083;-58
2021/10/18 07:29:08;;;;;;;4.82;2.05;;;;;;;;;;5070282;28;20052;-58
2021/10/18 07:31:34;;;;;;;3.75;1.75;;;;;;;;;;5070627;28;20093;-59
2021/10/18 07:34:04;;;;;;;4.85;1.67;;;;;;;;;;5070905;28;20016;-59
2021/10/18 07:36:30;;;;;;;6.45;1.80;;;;;;;;;;5070679;28;20464;-59
2021/10/18 07:39:03;;;;;;;6.15;1.83;;;;;;;;;;5070101;28;20021;-59
2021/10/18 07:41:28;;;;;;;4.57;1.52;;;;;;;;;;5071304;28;20383;-59
2021/10/18 07:43:54;;;;;;;2.53;1.75;;;;;;;;;;5070737;28;20104;-58
2021/10/18 07:46:19;;;;;;;3.60;1.40;;;;;;;;;;5068989;28;20070;-58
2021/10/18 07:48:44;;;;;;;6.63;1.55;;;;;;;;;;5068612;28;20060;-58
2021/10/18 07:51:09;;;;;;;3.17;1.42;;;;;;;;;;5069437;28;21175;-59
2021/10/18 07:53:34;;;;;;;3.75;1.55;;;;;;;;;;5070205;28;20020;-58
2021/10/18 07:56:00;;;;;;;2.97;1.33;;;;;;;;;;5065124;28;20564;-56
2021/10/18 07:58:25;;;;;;;3.90;0.95;;;;;;;;;;5070809;28;20040;-60
2021/10/18 08:00:50;;;;;;;3.47;1.20;;;;;;;;;;5069960;28;20433;-59
2021/10/18 08:03:15;;;;;;;4.68;1.30;;;;;;;;;;5070148;28;20066;-58
2021/10/18 08:05:41;;;;;;;4.40;1.00;;;;;;;;;;5070637;28;20461;-58
2021/10/18 08:08:09;;;;;;;2.88;1.40;;;;;;;;;;5071555;28;20044;-56
2021/10/18 08:10:35;;;;;;;3.17;1.27;;;;;;;;;;5069989;28;20033;-56
2021/10/18 08:13:00;;;;;;;4.68;1.73;;;;;;;;;;5069725;28;20039;-55
2021/10/18 08:15:26;;;;;;;5.75;1.63;;;;;;;;;;5071258;28;20024;-54
2021/10/18 08:17:52;;;;;;;4.13;1.40;;;;;;;;;;5070166;28;20016;-53
2021/10/18 08:20:17;;;;;;;2.15;1.30;;;;;;;;;;5070343;28;20468;-54
2021/10/18 08:22:42;;;;;;;4.90;1.73;;;;;;;;;;5070340;28;20528;-52
2021/10/18 08:25:08;;;;;;;2.45;1.55;;;;;;;;;;5069794;28;20560;-49
2021/10/18 08:27:33;;;;;;;2.78;1.33;;;;;;;;;;5066577;28;20033;-57
2021/10/18 08:29:58;;;;;;;3.15;1.45;;;;;;;;;;5069739;28;20100;-52
2021/10/18 08:32:24;;;;;;;3.83;1.90;;;;;;;;;;5072896;28;20159;-49
2021/10/18 08:34:49;;;;;;;2.40;1.70;;;;;;;;;;5072597;28;20036;-53
2021/10/18 08:37:14;;;;;;;2.35;1.50;;;;;;;;;;5073641;28;20021;-54
2021/10/18 08:42:26;;;;;;;3.42;1.83;;;;;;;;;;5073328;28;20031;-54
2021/10/18 08:44:51;;;;;;;3.40;1.48;;;;;;;;;;5073502;28;20408;-51
2021/10/18 08:47:17;;;;;;;3.75;1.70;;;;;;;;;;5074010;28;20031;-54
2021/10/18 08:49:42;;;;;;;2.30;1.40;;;;;;;;;;5074161;28;20020;-54
2021/10/18 08:52:07;;;;;;;3.10;1.65;;;;;;;;;;5073333;28;20161;-53
2021/10/18 08:54:33;;;;;;;2.17;0.80;;;;;;;;;;5073176;28;20017;-53
2021/10/18 08:56:58;;;;;;;2.47;1.10;;;;;;;;;;5068518;28;20020;-56
2021/10/18 08:59:24;;;;;;;4.03;1.60;;;;;;;;;;5073688;28;20423;-54
2021/10/18 09:01:53;;;;;;;2.90;1.95;;;;;;;;;;5073702;28;20078;-51
2021/10/18 09:04:28;;;;;;;2.63;1.45;;;;;;;;;;5073448;28;20103;-54
2021/10/18 09:06:55;;;;;;;4.93;1.70;;;;;;;;;;5073447;28;20021;-55
2021/10/18 09:09:24;;;;;;;2.67;1.65;;;;;;;;;;5072742;28;20112;-54
2021/10/18 09:11:50;;;;;;;3.97;1.55;;;;;;;;;;5073480;28;20123;-53
2021/10/18 09:14:15;;;;;;;2.58;1.98;;;;;;;;;;5072472;28;20111;-53
2021/10/18 09:16:45;;;;;;;2.35;2.13;;;;;;;;;;5072856;28;20371;-56
2021/10/18 09:19:13;;;;;;;2.92;1.30;;;;;;;;;;5072819;28;20020;-53
2021/10/18 09:21:44;;;;;;;2.58;1.75;;;;;;;;;;5073135;28;20016;-56
2021/10/18 09:24:10;;;;;;;3.97;2.25;;;;;;;;;;5073501;28;20020;-55
2021/10/18 09:26:36;;;;;;;1.70;1.50;;;;;;;;;;5073190;28;20032;-54
2021/10/18 09:29:15;;;;;;;2.03;1.23;;;;;;;;;;5073972;28;20073;-51
2021/10/18 09:31:42;;;;;;;2.65;1.30;;;;;;;;;;5074469;28;20028;-51
2021/10/18 09:34:15;;;;;;;2.80;1.30;;;;;;;;;;5073763;28;20024;-56
2021/10/18 09:36:41;;;;;;;2.15;1.52;;;;;;;;;;5073239;28;20032;-55
2021/10/18 09:39:24;;;;;;;2.70;1.40;;;;;;;;;;5073734;28;20020;-55
2021/10/18 09:41:57;;;;;;;2.80;1.33;;;;;;;;;;5073849;28;20029;-54
2021/10/18 09:44:43;;;;;;;2.03;1.45;;;;;;;;;;5071802;28;20452;-52
2021/10/18 09:47:42;;;;;;;4.18;2.05;;;;;;;;;;5073811;28;20020;-54
2021/10/18 10:54:06;;;;;;;2.17;1.70;;;;;;;;;;5072107;28;20016;-52
2021/10/18 10:59:19;;;;;;;2.83;1.88;;;;;;;;;;5066194;28;20023;-53
2021/10/18 11:01:56;;;;;;;2.42;1.60;;;;;;;;;;5072044;28;20016;-54
2021/10/18 11:04:30;;;;;;;1.98;1.80;;;;;;;;;;5071246;28;20054;-51
2021/10/18 11:06:56;;;;;;;3.22;1.90;;;;;;;;;;5072292;28;20021;-53
2021/10/18 11:09:40;;;;;;;2.33;2.22;;;;;;;;;;5071300;28;20198;-50
2021/10/18 11:12:19;;;;;;;1.90;1.80;;;;;;;;;;5068064;28;20039;-52
2021/10/18 11:14:51;;;;;;;1.65;1.55;;;;;;;;;;5071013;28;20460;-53
2021/10/18 11:17:17;;;;;;;1.45;1.30;;;;;;;;;;5052057;28;20472;-53
2021/10/18 11:19:50;;;;;;;2.38;1.88;;;;;;;;;;5065169;28;20027;-53
2021/10/18 11:22:23;;;;;;;1.80;1.70;;;;;;;;;;5071089;28;20021;-49
2021/10/18 11:24:48;;;;;;;1.70;1.60;;;;;;;;;;5070874;28;20073;-54
2021/10/18 11:27:13;;;;;;;2.30;2.10;;;;;;;;;;5068822;28;20123;-53
2021/10/18 11:29:38;;;;;;;1.70;1.60;;;;;;;;;;5071501;28;20350;-50
2021/10/18 11:32:04;;;;;;;3.07;1.70;;;;;;;;;;5070875;28;20291;-52
2021/10/18 11:34:29;;;;;;;1.98;1.70;;;;;;;;;;5072104;28;20361;-52
2021/10/18 11:36:55;;;;;;;2.07;1.90;;;;;;;;;;5071852;28;20016;-52
2021/10/18 11:39:25;;;;;;;1.83;1.73;;;;;;;;;;5071602;28;20144;-54
2021/10/18 11:41:59;;;;;;;2.20;2.00;;;;;;;;;;5070711;28;20016;-53
2021/10/18 11:44:42;;;;;;;2.47;1.83;;;;;;;;;;5070500;28;20031;-50
2021/10/18 11:47:19;;;;;;;1.80;1.70;;;;;;;;;;5071514;28;20020;-54
2021/10/18 11:50:01;;;;;;;1.90;1.80;;;;;;;;;;5071740;28;20025;-52
2021/10/18 11:52:26;;;;;;;2.10;2.00;;;;;;;;;;5069143;28;20036;-54
2021/10/18 11:54:51;;;;;;;2.00;1.90;;;;;;;;;;5071077;28;20017;-52
2021/10/18 11:57:18;;;;;;;3.40;1.60;;;;;;;;;;5068315;28;20435;-52
2021/10/18 11:59:43;;;;;;;1.85;1.70;;;;;;;;;;5080357;28;20105;-52
2021/10/18 12:02:21;;;;;;;2.60;1.87;;;;;;;;;;5069163;28;20107;-54
2021/10/18 12:04:56;;;;;;;2.40;1.88;;;;;;;;;;5070430;28;20314;-52
2021/10/18 12:07:38;;;;;;;1.85;1.55;;;;;;;;;;5073283;28;20013;-49
2021/10/18 12:10:14;;;;;;;3.90;1.55;;;;;;;;;;5074803;28;20131;-52
2021/10/18 12:12:39;;;;;;;1.90;1.80;;;;;;;;;;5075467;28;20026;-51
2021/10/18 12:15:06;;;;;;;2.80;1.60;;;;;;;;;;5074835;28;20387;-50
2021/10/18 12:17:32;;;;;;;1.80;1.67;;;;;;;;;;5075831;28;20032;-51
2021/10/18 12:19:58;;;;;;;1.60;1.50;;;;;;;;;;5075744;28;20099;-48
2021/10/18 12:22:23;;;;;;;2.05;1.48;;;;;;;;;;5074893;28;20504;-51
2021/10/18 12:25:01;;;;;;;1.47;1.37;;;;;;;;;;5075030;28;20546;-54
2021/10/18 12:27:26;;;;;;;3.17;1.92;;;;;;;;;;5072590;28;20036;-51
2021/10/18 12:29:51;;;;;;;1.95;1.77;;;;;;;;;;5074640;28;20120;-52
2021/10/18 12:32:18;;;;;;;1.73;1.63;;;;;;;;;;5072551;28;20042;-51
2021/10/18 12:34:43;;;;;;;1.70;1.60;;;;;;;;;;5075228;28;20017;-48
2021/10/18 12:37:09;;;;;;;2.10;1.90;;;;;;;;;;5073772;28;20035;-54
2021/10/18 12:39:39;;;;;;;3.85;1.38;;;;;;;;;;5073955;28;20071;-48
2021/10/18 12:42:05;;;;;;;2.85;1.83;;;;;;;;;;5074552;28;20354;-54
2021/10/18 12:44:37;;;;;;;1.90;1.67;;;;;;;;;;5074947;28;20111;-50
2021/10/18 12:47:08;;;;;;;1.85;1.10;;;;;;;;;;5074895;28;20048;-51
2021/10/18 12:49:34;;;;;;;1.63;1.20;;;;;;;;;;5074129;28;20064;-52
2021/10/18 12:52:02;;;;;;;2.67;1.30;;;;;;;;;;5073414;28;20036;-52
2021/10/18 12:54:29;;;;;;;1.27;1.17;;;;;;;;;;5074074;28;20267;-52
2021/10/18 12:57:03;;;;;;;1.65;1.20;;;;;;;;;;5071432;28;20481;-48
2021/10/18 12:59:31;;;;;;;2.22;1.58;;;;;;;;;;5074350;28;20095;-47
2021/10/18 13:02:15;;;;;;;1.20;1.10;;;;;;;;;;5073867;28;20337;-53
2021/10/18 13:04:40;;;;;;;2.20;0.90;;;;;;;;;;5073889;28;20373;-52
2021/10/18 13:07:05;;;;;;;2.90;1.60;;;;;;;;;;5074175;28;20036;-51
2021/10/18 13:09:31;;;;;;;2.30;1.67;;;;;;;;;;5073723;28;20283;-52
2021/10/18 13:11:56;;;;;;;1.50;1.40;;;;;;;;;;5073779;28;20328;-52
2021/10/18 13:14:21;;;;;;;1.73;1.47;;;;;;;;;;5073856;28;20369;-48
2021/10/18 13:16:46;;;;;;;1.65;1.55;;;;;;;;;;5074414;28;20258;-51
2021/10/18 13:19:11;;;;;;;2.43;2.00;;;;;;;;;;5073340;28;20028;-52
2021/10/18 13:21:37;;;;;;;2.30;1.73;;;;;;;;;;5074487;28;20287;-53
2021/10/18 13:24:03;;;;;;;1.83;1.60;;;;;;;;;;5073675;28;20267;-52
2021/10/18 13:26:29;;;;;;;2.47;1.95;;;;;;;;;;5070815;28;20052;-55
2021/10/18 13:28:54;;;;;;;2.08;1.70;;;;;;;;;;5072992;28;20557;-54
2021/10/18 13:31:19;;;;;;;1.98;1.60;;;;;;;;;;5073299;28;20032;-53
2021/10/18 13:33:45;;;;;;;1.80;1.70;;;;;;;;;;5073366;28;20042;-51
2021/10/18 13:36:11;;;;;;;1.60;1.50;;;;;;;;;;5072837;28;20020;-52
2021/10/18 13:38:36;;;;;;;2.00;1.80;;;;;;;;;;5073349;28;20023;-51
2021/10/18 13:41:02;;;;;;;2.40;2.20;;;;;;;;;;5073336;28;20020;-47
2021/10/18 13:43:27;;;;;;;1.83;1.73;;;;;;;;;;5072860;28;20365;-48
2021/10/18 13:45:52;;;;;;;3.17;1.90;;;;;;;;;;5073590;28;20475;-51
2021/10/18 13:48:19;;;;;;;1.67;1.57;;;;;;;;;;5073739;28;20299;-52
2021/10/18 13:50:44;;;;;;;1.98;1.38;;;;;;;;;;5073408;28;20266;-51
2021/10/18 13:53:10;;;;;;;1.17;1.08;;;;;;;;;;5072610;28;20020;-50
2021/10/18 13:55:35;;;;;;;2.40;1.10;;;;;;;;;;5070559;28;20489;-51
2021/10/18 13:58:00;;;;;;;1.75;1.05;;;;;;;;;;5076654;28;20059;-52
2021/10/18 14:00:25;;;;;;;2.00;0.90;;;;;;;;;;5078746;28;20541;-50
2021/10/18 14:02:53;;;;;;;1.23;0.90;;;;;;;;;;5072980;28;20306;-52
2021/10/18 14:05:18;;;;;;;1.08;0.77;;;;;;;;;;5072755;28;20107;-52
2021/10/18 14:07:43;;;;;;;1.85;0.70;;;;;;;;;;5073443;28;20462;-52
2021/10/18 14:10:09;;;;;;;2.47;0.82;;;;;;;;;;5071481;28;20488;-52
2021/10/18 14:12:34;;;;;;;1.80;0.85;;;;;;;;;;5072681;28;20396;-52
2021/10/18 14:15:00;;;;;;;1.85;0.68;;;;;;;;;;5072856;28;20074;-50
2021/10/18 14:17:25;;;;;;;0.73;0.70;;;;;;;;;;5072810;28;20021;-52
2021/10/18 14:19:50;;;;;;;1.13;0.83;;;;;;;;;;5072943;28;20067;-49
2021/10/18 14:22:15;;;;;;;2.35;0.80;;;;;;;;;;5072228;28;20656;-51
2021/10/18 14:24:41;;;;;;;2.25;1.15;;;;;;;;;;5071045;28;20123;-52
2021/10/18 14:27:06;;;;;;;1.40;1.08;;;;;;;;;;5064546;28;20032;-52
2021/10/18 14:29:31;;;;;;;1.92;1.10;;;;;;;;;;5062346;28;20025;-48
2021/10/18 14:31:57;;;;;;;1.42;0.98;;;;;;;;;;5068561;28;20017;-49
2021/10/18 14:34:23;;;;;;;1.00;0.90;;;;;;;;;;5071683;28;20051;-49
2021/10/18 14:36:49;;;;;;;1.52;1.25;;;;;;;;;;5071190;28;20091;-52
2021/10/18 14:39:14;;;;;;;1.35;1.25;;;;;;;;;;5071015;28;20111;-50
2021/10/18 14:41:40;;;;;;;1.30;1.08;;;;;;;;;;5071556;28;20021;-53
2021/10/18 14:44:07;;;;;;;2.80;0.98;;;;;;;;;;5070533;28;20031;-48
2021/10/18 14:46:32;;;;;;;1.10;1.00;;;;;;;;;;5071474;28;20047;-53
2021/10/18 14:48:58;;;;;;;1.55;0.90;;;;;;;;;;5071144;28;20025;-49
2021/10/18 14:51:24;;;;;;;1.30;0.77;;;;;;;;;;5071660;28;20514;-48
2021/10/18 14:53:53;;;;;;;2.83;1.30;;;;;;;;;;5072082;28;20024;-53
2021/10/18 14:56:18;;;;;;;2.80;1.35;;;;;;;;;;5066142;28;20021;-51
2021/10/18 14:58:44;;;;;;;1.65;1.27;;;;;;;;;;5071075;28;20035;-51
2021/10/18 15:01:10;;;;;;;2.00;1.38;;;;;;;;;;5070854;28;20154;-50
2021/10/18 15:03:35;;;;;;;1.75;1.30;;;;;;;;;;5072568;28;20024;-54
2021/10/18 15:06:01;;;;;;;2.65;1.30;;;;;;;;;;5071441;28;20499;-53
2021/10/18 15:08:26;;;;;;;2.00;1.48;;;;;;;;;;5072208;28;20036;-45
2021/10/18 15:10:51;;;;;;;1.42;1.30;;;;;;;;;;5071499;28;20031;-50
2021/10/18 15:13:16;;;;;;;1.58;1.15;;;;;;;;;;5071138;28;20043;-51
2021/10/18 15:15:42;;;;;;;2.95;1.67;;;;;;;;;;5071026;28;20027;-52
2021/10/18 15:18:07;;;;;;;3.50;1.42;;;;;;;;;;5071284;28;20023;-52
2021/10/18 15:20:32;;;;;;;1.77;1.20;;;;;;;;;;5070839;28;20029;-53
2021/10/18 15:22:58;;;;;;;1.40;1.20;;;;;;;;;;5070944;28;20099;-51
2021/10/18 15:25:23;;;;;;;3.53;1.27;;;;;;;;;;5068622;28;20054;-50
2021/10/18 15:27:48;;;;;;;1.65;1.40;;;;;;;;;;5065371;28;20119;-50
2021/10/18 15:30:14;;;;;;;2.47;1.70;;;;;;;;;;5069738;28;20055;-48
2021/10/18 15:32:40;;;;;;;2.75;1.33;;;;;;;;;;5071694;28;20461;-52
2021/10/18 15:35:06;;;;;;;1.67;1.58;;;;;;;;;;5070131;28;20016;-51
2021/10/18 15:37:33;;;;;;;1.40;1.30;;;;;;;;;;5071233;28;20025;-53
2021/10/18 15:39:59;;;;;;;1.75;1.65;;;;;;;;;;5056234;28;20393;-53
2021/10/18 15:42:24;;;;;;;2.25;1.75;;;;;;;;;;5070099;28;20043;-53
2021/10/18 15:44:49;;;;;;;3.08;1.80;;;;;;;;;;5071134;28;20028;-51
2021/10/18 15:47:15;;;;;;;4.13;1.48;;;;;;;;;;5070870;28;20032;-51